sensor_id;sensor_type;location;lat;lon;timestamp;pressure;altitude;pressure_sealevel;temperature;humidity
50368;BME280;36281;34.132;-118.018;2023-04-10T00:00:14;100122.84;;;27.92;38.34
50368;BME280;36281;34.132;-118.018;2023-04-10T00:02:43;100118.19;;;27.83;38.19
50368;BME280;36281;34.132;-118.018;2023-04-10T00:05:14;100108.75;;;27.81;38.28
50368;BME280;36281;34.132;-118.018;2023-04-10T00:07:43;100116.75;;;27.77;37.71
50368;BME280;36281;34.132;-118.018;2023-04-10T00:10:12;100113.88;;;27.74;37.57
50368;BME280;36281;34.132;-118.018;2023-04-10T00:12:41;100119.44;;;27.69;37.70
50368;BME280;36281;34.132;-118.018;2023-04-10T00:15:11;100124.06;;;27.68;37.73
50368;BME280;36281;34.132;-118.018;2023-04-10T00:17:40;100130.81;;;27.62;37.60
50368;BME280;36281;34.132;-118.018;2023-04-10T00:20:09;100137.19;;;27.57;37.65
50368;BME280;36281;34.132;-118.018;2023-04-10T00:22:40;100131.75;;;27.49;38.20
50368;BME280;36281;34.132;-118.018;2023-04-10T00:25:10;100127.09;;;27.41;37.92
50368;BME280;36281;34.132;-118.018;2023-04-10T00:27:39;100132.03;;;27.30;37.75
50368;BME280;36281;34.132;-118.018;2023-04-10T00:30:09;100133.78;;;27.17;38.04
50368;BME280;36281;34.132;-118.018;2023-04-10T00:32:38;100135.66;;;27.08;38.34
50368;BME280;36281;34.132;-118.018;2023-04-10T00:35:08;100137.03;;;26.97;38.63
50368;BME280;36281;34.132;-118.018;2023-04-10T00:37:39;100142.75;;;26.87;38.67
50368;BME280;36281;34.132;-118.018;2023-04-10T00:40:09;100135.69;;;26.77;39.15
50368;BME280;36281;34.132;-118.018;2023-04-10T00:42:38;100141.72;;;26.74;38.89
50368;BME280;36281;34.132;-118.018;2023-04-10T00:45:07;100137.69;;;26.63;39.09
50368;BME280;36281;34.132;-118.018;2023-04-10T00:47:37;100137.16;;;26.52;38.93
50368;BME280;36281;34.132;-118.018;2023-04-10T00:50:06;100141.41;;;26.44;38.92
50368;BME280;36281;34.132;-118.018;2023-04-10T00:52:36;100132.34;;;26.26;39.22
50368;BME280;36281;34.132;-118.018;2023-04-10T00:55:07;100137.38;;;26.19;39.44
50368;BME280;36281;34.132;-118.018;2023-04-10T00:57:37;100140.56;;;26.13;39.80
50368;BME280;36281;34.132;-118.018;2023-04-10T01:00:07;100138.69;;;25.99;39.36
50368;BME280;36281;34.132;-118.018;2023-04-10T01:02:37;100138.13;;;25.89;39.65
50368;BME280;36281;34.132;-118.018;2023-04-10T01:05:07;100144.00;;;25.82;40.09
50368;BME280;36281;34.132;-118.018;2023-04-10T01:07:54;100145.47;;;25.74;40.21
50368;BME280;36281;34.132;-118.018;2023-04-10T01:10:37;100138.56;;;25.68;40.44
50368;BME280;36281;34.132;-118.018;2023-04-10T01:13:18;100131.09;;;25.51;40.37
50368;BME280;36281;34.132;-118.018;2023-04-10T01:16:03;100124.88;;;25.37;40.57
50368;BME280;36281;34.132;-118.018;2023-04-10T01:18:38;100142.75;;;25.38;40.36
50368;BME280;36281;34.132;-118.018;2023-04-10T01:21:10;100138.03;;;25.30;40.34
50368;BME280;36281;34.132;-118.018;2023-04-10T01:23:53;100139.25;;;25.24;40.37
50368;BME280;36281;34.132;-118.018;2023-04-10T01:26:38;100135.94;;;25.13;40.50
50368;BME280;36281;34.132;-118.018;2023-04-10T01:29:14;100129.19;;;24.97;40.77
50368;BME280;36281;34.132;-118.018;2023-04-10T01:31:51;100136.09;;;24.89;40.36
50368;BME280;36281;34.132;-118.018;2023-04-10T01:34:25;100140.81;;;24.84;40.67
50368;BME280;36281;34.132;-118.018;2023-04-10T01:37:00;100134.88;;;24.68;40.94
50368;BME280;36281;34.132;-118.018;2023-04-10T01:39:30;100156.84;;;24.66;41.58
50368;BME280;36281;34.132;-118.018;2023-04-10T01:42:00;100150.44;;;24.62;41.63
50368;BME280;36281;34.132;-118.018;2023-04-10T01:44:34;100142.56;;;24.47;41.23
50368;BME280;36281;34.132;-118.018;2023-04-10T01:47:06;100161.81;;;24.45;40.59
50368;BME280;36281;34.132;-118.018;2023-04-10T01:49:36;100154.13;;;24.34;40.83
50368;BME280;36281;34.132;-118.018;2023-04-10T01:52:10;100166.22;;;24.22;40.63
50368;BME280;36281;34.132;-118.018;2023-04-10T01:54:41;100169.97;;;24.08;40.92
50368;BME280;36281;34.132;-118.018;2023-04-10T01:57:11;100169.59;;;23.95;41.24
50368;BME280;36281;34.132;-118.018;2023-04-10T01:59:44;100166.81;;;23.82;41.56
50368;BME280;36281;34.132;-118.018;2023-04-10T02:02:13;100168.00;;;23.76;41.99
50368;BME280;36281;34.132;-118.018;2023-04-10T02:04:42;100158.53;;;23.54;42.13
50368;BME280;36281;34.132;-118.018;2023-04-10T02:07:19;100175.91;;;23.48;42.49
50368;BME280;36281;34.132;-118.018;2023-04-10T02:09:59;100173.59;;;23.36;43.07
50368;BME280;36281;34.132;-118.018;2023-04-10T02:12:33;100170.16;;;23.31;43.50
50368;BME280;36281;34.132;-118.018;2023-04-10T02:15:08;100178.44;;;23.15;43.30
50368;BME280;36281;34.132;-118.018;2023-04-10T02:17:40;100179.59;;;23.09;43.69
50368;BME280;36281;34.132;-118.018;2023-04-10T02:20:10;100174.31;;;22.99;44.05
50368;BME280;36281;34.132;-118.018;2023-04-10T02:22:41;100160.94;;;22.84;44.48
50368;BME280;36281;34.132;-118.018;2023-04-10T02:25:13;100186.34;;;22.83;45.13
50368;BME280;36281;34.132;-118.018;2023-04-10T02:27:43;100174.84;;;22.67;45.38
50368;BME280;36281;34.132;-118.018;2023-04-10T02:30:14;100172.00;;;22.58;45.96
50368;BME280;36281;34.132;-118.018;2023-04-10T02:32:43;100183.84;;;22.57;46.03
50368;BME280;36281;34.132;-118.018;2023-04-10T02:35:13;100190.97;;;22.48;46.37
50368;BME280;36281;34.132;-118.018;2023-04-10T02:37:42;100195.91;;;22.36;46.59
50368;BME280;36281;34.132;-118.018;2023-04-10T02:40:11;100201.91;;;22.28;46.91
50368;BME280;36281;34.132;-118.018;2023-04-10T02:42:40;100206.56;;;22.17;47.26
50368;BME280;36281;34.132;-118.018;2023-04-10T02:45:10;100207.16;;;22.09;47.53
50368;BME280;36281;34.132;-118.018;2023-04-10T02:47:41;100212.81;;;22.02;47.47
50368;BME280;36281;34.132;-118.018;2023-04-10T02:50:10;100197.81;;;21.86;47.57
50368;BME280;36281;34.132;-118.018;2023-04-10T02:52:40;100212.72;;;21.78;48.10
50368;BME280;36281;34.132;-118.018;2023-04-10T02:55:10;100215.72;;;21.66;48.29
50368;BME280;36281;34.132;-118.018;2023-04-10T02:57:39;100219.00;;;21.58;48.55
50368;BME280;36281;34.132;-118.018;2023-04-10T03:00:09;100221.16;;;21.51;49.45
50368;BME280;36281;34.132;-118.018;2023-04-10T03:02:40;100222.56;;;21.44;50.30
50368;BME280;36281;34.132;-118.018;2023-04-10T03:05:09;100223.38;;;21.39;50.63
50368;BME280;36281;34.132;-118.018;2023-04-10T03:07:38;100223.38;;;21.29;50.27
50368;BME280;36281;34.132;-118.018;2023-04-10T03:10:08;100224.47;;;21.23;50.74
50368;BME280;36281;34.132;-118.018;2023-04-10T03:12:37;100224.75;;;21.16;50.69
50368;BME280;36281;34.132;-118.018;2023-04-10T03:15:08;100216.41;;;21.02;51.63
50368;BME280;36281;34.132;-118.018;2023-04-10T03:17:37;100222.88;;;21.01;52.09
50368;BME280;36281;34.132;-118.018;2023-04-10T03:20:09;100229.38;;;20.95;51.86
50368;BME280;36281;34.132;-118.018;2023-04-10T03:22:39;100231.78;;;20.86;51.73
50368;BME280;36281;34.132;-118.018;2023-04-10T03:25:09;100228.84;;;20.78;51.60
50368;BME280;36281;34.132;-118.018;2023-04-10T03:27:38;100218.06;;;20.62;52.41
50368;BME280;36281;34.132;-118.018;2023-04-10T03:30:08;100222.94;;;20.60;52.79
50368;BME280;36281;34.132;-118.018;2023-04-10T03:32:37;100227.22;;;20.56;53.07
50368;BME280;36281;34.132;-118.018;2023-04-10T03:35:09;100228.84;;;20.47;53.59
50368;BME280;36281;34.132;-118.018;2023-04-10T03:37:38;100231.50;;;20.37;53.80
50368;BME280;36281;34.132;-118.018;2023-04-10T03:40:08;100221.53;;;20.32;53.45
50368;BME280;36281;34.132;-118.018;2023-04-10T03:42:38;100228.78;;;20.27;53.65
50368;BME280;36281;34.132;-118.018;2023-04-10T03:45:08;100228.78;;;20.17;52.94
50368;BME280;36281;34.132;-118.018;2023-04-10T03:47:37;100234.94;;;20.07;53.58
50368;BME280;36281;34.132;-118.018;2023-04-10T03:50:08;100237.34;;;20.03;54.19
50368;BME280;36281;34.132;-118.018;2023-04-10T03:52:38;100229.53;;;19.97;53.84
50368;BME280;36281;34.132;-118.018;2023-04-10T03:55:08;100235.97;;;19.91;54.85
50368;BME280;36281;34.132;-118.018;2023-04-10T03:57:37;100220.06;;;19.79;54.47
50368;BME280;36281;34.132;-118.018;2023-04-10T04:00:07;100225.41;;;19.74;54.67
50368;BME280;36281;34.132;-118.018;2023-04-10T04:02:36;100251.50;;;19.78;56.05
50368;BME280;36281;34.132;-118.018;2023-04-10T04:05:08;100251.47;;;19.73;56.11
50368;BME280;36281;34.132;-118.018;2023-04-10T04:07:37;100249.31;;;19.65;56.14
50368;BME280;36281;34.132;-118.018;2023-04-10T04:10:07;100261.38;;;19.62;56.68
50368;BME280;36281;34.132;-118.018;2023-04-10T04:12:36;100259.72;;;19.56;55.91
50368;BME280;36281;34.132;-118.018;2023-04-10T04:15:06;100259.41;;;19.48;56.13
50368;BME280;36281;34.132;-118.018;2023-04-10T04:17:35;100256.38;;;19.39;57.05
50368;BME280;36281;34.132;-118.018;2023-04-10T04:20:05;100270.09;;;19.37;57.52
50368;BME280;36281;34.132;-118.018;2023-04-10T04:22:36;100263.38;;;19.35;57.19
50368;BME280;36281;34.132;-118.018;2023-04-10T04:25:06;100272.44;;;19.29;57.70
50368;BME280;36281;34.132;-118.018;2023-04-10T04:27:38;100268.91;;;19.23;57.91
50368;BME280;36281;34.132;-118.018;2023-04-10T04:30:08;100265.41;;;19.18;57.61
50368;BME280;36281;34.132;-118.018;2023-04-10T04:32:38;100271.00;;;19.11;57.70
50368;BME280;36281;34.132;-118.018;2023-04-10T04:35:07;100273.09;;;19.04;58.00
50368;BME280;36281;34.132;-118.018;2023-04-10T04:37:38;100280.59;;;19.02;58.26
50368;BME280;36281;34.132;-118.018;2023-04-10T04:40:09;100274.91;;;18.98;59.01
50368;BME280;36281;34.132;-118.018;2023-04-10T04:42:38;100282.69;;;18.95;58.67
50368;BME280;36281;34.132;-118.018;2023-04-10T04:45:08;100282.66;;;18.90;58.89
50368;BME280;36281;34.132;-118.018;2023-04-10T04:47:37;100280.75;;;18.85;59.17
50368;BME280;36281;34.132;-118.018;2023-04-10T04:50:08;100283.63;;;18.78;60.09
50368;BME280;36281;34.132;-118.018;2023-04-10T04:52:38;100283.88;;;18.77;60.13
50368;BME280;36281;34.132;-118.018;2023-04-10T04:55:08;100282.78;;;18.73;60.44
50368;BME280;36281;34.132;-118.018;2023-04-10T04:57:37;100293.75;;;18.71;60.39
50368;BME280;36281;34.132;-118.018;2023-04-10T05:00:07;100291.00;;;18.66;60.21
50368;BME280;36281;34.132;-118.018;2023-04-10T05:02:37;100291.19;;;18.59;60.69
50368;BME280;36281;34.132;-118.018;2023-04-10T05:05:06;100298.16;;;18.55;61.07
50368;BME280;36281;34.132;-118.018;2023-04-10T05:07:35;100300.53;;;18.52;61.31
50368;BME280;36281;34.132;-118.018;2023-04-10T05:10:07;100295.38;;;18.45;61.36
50368;BME280;36281;34.132;-118.018;2023-04-10T05:12:36;100278.56;;;18.28;61.67
50368;BME280;36281;34.132;-118.018;2023-04-10T05:15:06;100299.00;;;18.34;62.35
50368;BME280;36281;34.132;-118.018;2023-04-10T05:17:35;100300.88;;;18.33;62.67
50368;BME280;36281;34.132;-118.018;2023-04-10T05:20:05;100306.19;;;18.28;63.06
50368;BME280;36281;34.132;-118.018;2023-04-10T05:22:35;100304.78;;;18.21;63.37
50368;BME280;36281;34.132;-118.018;2023-04-10T05:25:06;100305.25;;;18.18;63.18
50368;BME280;36281;34.132;-118.018;2023-04-10T05:27:36;100294.91;;;18.04;63.25
50368;BME280;36281;34.132;-118.018;2023-04-10T05:30:05;100313.72;;;18.09;63.21
50368;BME280;36281;34.132;-118.018;2023-04-10T05:32:35;100311.50;;;18.01;63.60
50368;BME280;36281;34.132;-118.018;2023-04-10T05:35:04;100311.50;;;18.01;63.77
50368;BME280;36281;34.132;-118.018;2023-04-10T05:37:34;100315.75;;;17.97;63.62
50368;BME280;36281;34.132;-118.018;2023-04-10T05:40:03;100321.59;;;17.94;63.99
50368;BME280;36281;34.132;-118.018;2023-04-10T05:42:34;100315.13;;;17.90;64.49
50368;BME280;36281;34.132;-118.018;2023-04-10T05:45:04;100323.91;;;17.86;64.85
50368;BME280;36281;34.132;-118.018;2023-04-10T05:47:33;100326.81;;;17.84;64.96
50368;BME280;36281;34.132;-118.018;2023-04-10T05:50:03;100325.13;;;17.78;64.99
50368;BME280;36281;34.132;-118.018;2023-04-10T05:52:32;100322.13;;;17.74;64.85
50368;BME280;36281;34.132;-118.018;2023-04-10T05:55:01;100323.09;;;17.68;64.75
50368;BME280;36281;34.132;-118.018;2023-04-10T05:57:31;100331.88;;;17.64;64.92
50368;BME280;36281;34.132;-118.018;2023-04-10T06:00:02;100316.31;;;17.44;65.55
50368;BME280;36281;34.132;-118.018;2023-04-10T06:02:31;100338.16;;;17.52;65.87
50368;BME280;36281;34.132;-118.018;2023-04-10T06:05:01;100334.34;;;17.48;66.33
50368;BME280;36281;34.132;-118.018;2023-04-10T06:07:30;100339.13;;;17.46;66.30
50368;BME280;36281;34.132;-118.018;2023-04-10T06:10:00;100346.03;;;17.42;66.25
50368;BME280;36281;34.132;-118.018;2023-04-10T06:12:29;100337.94;;;17.37;66.32
50368;BME280;36281;34.132;-118.018;2023-04-10T06:14:58;100339.47;;;17.33;66.54
50368;BME280;36281;34.132;-118.018;2023-04-10T06:17:29;100340.19;;;17.28;66.54
50368;BME280;36281;34.132;-118.018;2023-04-10T06:19:58;100328.34;;;17.24;67.03
50368;BME280;36281;34.132;-118.018;2023-04-10T06:22:31;100337.44;;;17.23;67.18
50368;BME280;36281;34.132;-118.018;2023-04-10T06:25:00;100339.78;;;17.20;67.36
50368;BME280;36281;34.132;-118.018;2023-04-10T06:27:30;100335.66;;;17.12;67.64
50368;BME280;36281;34.132;-118.018;2023-04-10T06:29:59;100336.38;;;17.08;68.34
50368;BME280;36281;34.132;-118.018;2023-04-10T06:32:30;100327.69;;;17.00;68.58
50368;BME280;36281;34.132;-118.018;2023-04-10T06:34:59;100330.38;;;17.00;68.67
50368;BME280;36281;34.132;-118.018;2023-04-10T06:37:28;100330.28;;;16.95;68.80
50368;BME280;36281;34.132;-118.018;2023-04-10T06:40:05;100332.88;;;16.90;69.13
50368;BME280;36281;34.132;-118.018;2023-04-10T06:42:35;100325.91;;;16.89;69.20
50368;BME280;36281;34.132;-118.018;2023-04-10T06:45:05;100329.09;;;16.86;69.61
50368;BME280;36281;34.132;-118.018;2023-04-10T06:47:36;100329.81;;;16.82;69.92
50368;BME280;36281;34.132;-118.018;2023-04-10T06:50:06;100325.19;;;16.77;70.01
50368;BME280;36281;34.132;-118.018;2023-04-10T06:52:35;100324.38;;;16.65;70.62
50368;BME280;36281;34.132;-118.018;2023-04-10T06:55:04;100326.06;;;16.54;71.03
50368;BME280;36281;34.132;-118.018;2023-04-10T06:57:33;100325.72;;;16.50;71.44
50368;BME280;36281;34.132;-118.018;2023-04-10T07:00:03;100324.00;;;16.44;71.71
50368;BME280;36281;34.132;-118.018;2023-04-10T07:02:32;100320.19;;;16.40;71.96
50368;BME280;36281;34.132;-118.018;2023-04-10T07:05:03;100318.47;;;16.34;72.43
50368;BME280;36281;34.132;-118.018;2023-04-10T07:07:32;100318.22;;;16.36;72.31
50368;BME280;36281;34.132;-118.018;2023-04-10T07:10:01;100324.88;;;16.33;72.53
50368;BME280;36281;34.132;-118.018;2023-04-10T07:12:30;100316.28;;;16.31;72.59
50368;BME280;36281;34.132;-118.018;2023-04-10T07:14:59;100317.31;;;16.30;72.89
50368;BME280;36281;34.132;-118.018;2023-04-10T07:17:28;100308.75;;;16.28;72.85
50368;BME280;36281;34.132;-118.018;2023-04-10T07:19:58;100311.06;;;16.24;73.24
50368;BME280;36281;34.132;-118.018;2023-04-10T07:22:28;100314.56;;;16.25;73.09
50368;BME280;36281;34.132;-118.018;2023-04-10T07:24:59;100307.25;;;16.20;73.00
50368;BME280;36281;34.132;-118.018;2023-04-10T07:27:28;100301.81;;;16.15;73.34
50368;BME280;36281;34.132;-118.018;2023-04-10T07:29:57;100302.63;;;16.16;73.43
50368;BME280;36281;34.132;-118.018;2023-04-10T07:32:26;100300.19;;;16.14;73.59
50368;BME280;36281;34.132;-118.018;2023-04-10T07:34:55;100304.16;;;16.12;73.48
50368;BME280;36281;34.132;-118.018;2023-04-10T07:37:24;100296.59;;;16.09;73.71
50368;BME280;36281;34.132;-118.018;2023-04-10T07:39:55;100298.94;;;16.05;74.36
50368;BME280;36281;34.132;-118.018;2023-04-10T07:42:24;100287.59;;;15.98;74.65
50368;BME280;36281;34.132;-118.018;2023-04-10T07:44:54;100289.91;;;15.94;74.64
50368;BME280;36281;34.132;-118.018;2023-04-10T07:47:23;100271.00;;;15.84;74.75
50368;BME280;36281;34.132;-118.018;2023-04-10T07:49:52;100287.22;;;15.94;74.72
50368;BME280;36281;34.132;-118.018;2023-04-10T07:52:21;100286.88;;;15.91;74.83
50368;BME280;36281;34.132;-118.018;2023-04-10T07:54:50;100282.84;;;15.88;75.13
50368;BME280;36281;34.132;-118.018;2023-04-10T07:57:20;100285.41;;;15.83;75.18
50368;BME280;36281;34.132;-118.018;2023-04-10T07:59:49;100283.19;;;15.80;75.59
50368;BME280;36281;34.132;-118.018;2023-04-10T08:02:19;100285.31;;;15.78;75.85
50368;BME280;36281;34.132;-118.018;2023-04-10T08:04:48;100273.56;;;15.79;75.79
50368;BME280;36281;34.132;-118.018;2023-04-10T08:09:47;100270.00;;;15.73;76.10
50368;BME280;36281;34.132;-118.018;2023-04-10T08:12:16;100271.84;;;15.73;76.13
50368;BME280;36281;34.132;-118.018;2023-04-10T08:14:47;100269.63;;;15.70;76.38
50368;BME280;36281;34.132;-118.018;2023-04-10T08:17:16;100268.25;;;15.67;76.64
50368;BME280;36281;34.132;-118.018;2023-04-10T08:19:46;100272.19;;;15.65;76.92
50368;BME280;36281;34.132;-118.018;2023-04-10T08:22:14;100273.69;;;15.61;76.71
50368;BME280;36281;34.132;-118.018;2023-04-10T08:24:43;100273.13;;;15.59;76.84
50368;BME280;36281;34.132;-118.018;2023-04-10T08:27:12;100263.59;;;15.51;77.14
50368;BME280;36281;34.132;-118.018;2023-04-10T08:29:43;100273.72;;;15.49;77.24
50368;BME280;36281;34.132;-118.018;2023-04-10T08:32:14;100252.72;;;15.29;77.28
50368;BME280;36281;34.132;-118.018;2023-04-10T08:34:43;100276.84;;;15.34;77.39
50368;BME280;36281;34.132;-118.018;2023-04-10T08:37:12;100277.31;;;15.31;77.71
50368;BME280;36281;34.132;-118.018;2023-04-10T08:39:43;100283.47;;;15.32;77.94
50368;BME280;36281;34.132;-118.018;2023-04-10T08:42:12;100263.84;;;15.14;78.36
50368;BME280;36281;34.132;-118.018;2023-04-10T08:44:41;100281.59;;;15.20;78.31
50368;BME280;36281;34.132;-118.018;2023-04-10T08:47:14;100277.19;;;15.14;78.47
50368;BME280;36281;34.132;-118.018;2023-04-10T08:49:54;100278.94;;;15.09;78.57
50368;BME280;36281;34.132;-118.018;2023-04-10T08:52:25;100276.50;;;15.07;79.05
50368;BME280;36281;34.132;-118.018;2023-04-10T08:54:56;100265.25;;;14.93;79.13
50368;BME280;36281;34.132;-118.018;2023-04-10T08:57:28;100276.59;;;15.00;79.20
50368;BME280;36281;34.132;-118.018;2023-04-10T08:59:57;100279.75;;;14.97;79.35
50368;BME280;36281;34.132;-118.018;2023-04-10T09:02:39;100289.81;;;14.95;79.53
50368;BME280;36281;34.132;-118.018;2023-04-10T09:05:11;100277.41;;;14.89;79.44
50368;BME280;36281;34.132;-118.018;2023-04-10T09:07:40;100279.94;;;14.84;79.55
50368;BME280;36281;34.132;-118.018;2023-04-10T09:10:10;100275.06;;;14.81;79.87
50368;BME280;36281;34.132;-118.018;2023-04-10T09:12:46;100285.72;;;14.81;79.78
50368;BME280;36281;34.132;-118.018;2023-04-10T09:15:15;100280.28;;;14.76;80.14
50368;BME280;36281;34.132;-118.018;2023-04-10T09:18:01;100275.63;;;14.71;80.69
50368;BME280;36281;34.132;-118.018;2023-04-10T09:20:31;100274.81;;;14.71;80.87
50368;BME280;36281;34.132;-118.018;2023-04-10T09:23:00;100249.88;;;14.54;81.19
50368;BME280;36281;34.132;-118.018;2023-04-10T09:25:31;100270.41;;;14.65;81.39
50368;BME280;36281;34.132;-118.018;2023-04-10T09:28:02;100274.69;;;14.66;81.18
50368;BME280;36281;34.132;-118.018;2023-04-10T09:30:35;100269.84;;;14.63;80.97
50368;BME280;36281;34.132;-118.018;2023-04-10T09:33:21;100275.16;;;14.63;80.93
50368;BME280;36281;34.132;-118.018;2023-04-10T09:35:50;100254.38;;;14.53;81.28
50368;BME280;36281;34.132;-118.018;2023-04-10T09:38:20;100265.19;;;14.58;81.46
50368;BME280;36281;34.132;-118.018;2023-04-10T09:40:49;100263.19;;;14.54;81.32
50368;BME280;36281;34.132;-118.018;2023-04-10T09:43:23;100250.78;;;14.47;81.33
50368;BME280;36281;34.132;-118.018;2023-04-10T09:45:54;100243.66;;;14.41;81.61
50368;BME280;36281;34.132;-118.018;2023-04-10T09:48:27;100252.81;;;14.45;81.64
50368;BME280;36281;34.132;-118.018;2023-04-10T09:50:56;100247.97;;;14.42;81.69
50368;BME280;36281;34.132;-118.018;2023-04-10T09:53:26;100248.41;;;14.39;81.75
50368;BME280;36281;34.132;-118.018;2023-04-10T09:55:55;100238.44;;;14.35;81.84
50368;BME280;36281;34.132;-118.018;2023-04-10T09:58:24;100239.47;;;14.34;81.68
50368;BME280;36281;34.132;-118.018;2023-04-10T10:00:55;100233.78;;;14.30;82.11
50368;BME280;36281;34.132;-118.018;2023-04-10T10:03:24;100234.00;;;14.29;82.25
50368;BME280;36281;34.132;-118.018;2023-04-10T10:05:55;100222.03;;;14.19;82.13
50368;BME280;36281;34.132;-118.018;2023-04-10T10:08:25;100232.59;;;14.26;82.55
50368;BME280;36281;34.132;-118.018;2023-04-10T10:10:56;100226.94;;;14.22;82.75
50368;BME280;36281;34.132;-118.018;2023-04-10T10:13:30;100229.81;;;14.21;82.85
50368;BME280;36281;34.132;-118.018;2023-04-10T10:16:05;100222.47;;;14.16;82.74
50368;BME280;36281;34.132;-118.018;2023-04-10T10:18:41;100226.44;;;14.14;82.62
50368;BME280;36281;34.132;-118.018;2023-04-10T10:21:14;100210.03;;;13.99;82.80
50368;BME280;36281;34.132;-118.018;2023-04-10T10:23:45;100216.09;;;14.06;82.99
50368;BME280;36281;34.132;-118.018;2023-04-10T10:26:16;100195.19;;;13.91;83.18
50368;BME280;36281;34.132;-118.018;2023-04-10T10:28:46;100216.56;;;14.03;83.22
50368;BME280;36281;34.132;-118.018;2023-04-10T10:31:16;100214.91;;;14.02;83.22
50368;BME280;36281;34.132;-118.018;2023-04-10T10:33:47;100209.69;;;13.95;83.39
50368;BME280;36281;34.132;-118.018;2023-04-10T10:36:18;100216.28;;;13.92;83.31
50368;BME280;36281;34.132;-118.018;2023-04-10T10:38:54;100212.19;;;13.90;83.39
50368;BME280;36281;34.132;-118.018;2023-04-10T10:41:29;100212.06;;;13.85;83.97
50368;BME280;36281;34.132;-118.018;2023-04-10T10:44:05;100224.13;;;13.87;83.67
50368;BME280;36281;34.132;-118.018;2023-04-10T10:46:46;100223.53;;;13.85;83.74
50368;BME280;36281;34.132;-118.018;2023-04-10T10:49:17;100218.63;;;13.82;83.60
50368;BME280;36281;34.132;-118.018;2023-04-10T10:51:48;100213.78;;;13.79;83.87
50368;BME280;36281;34.132;-118.018;2023-04-10T10:54:34;100214.22;;;13.76;84.25
50368;BME280;36281;34.132;-118.018;2023-04-10T10:57:46;100211.19;;;13.73;84.46
50368;BME280;36281;34.132;-118.018;2023-04-10T11:00:16;100197.44;;;13.57;84.49
50368;BME280;36281;34.132;-118.018;2023-04-10T11:02:45;100218.34;;;13.72;84.23
50368;BME280;36281;34.132;-118.018;2023-04-10T11:05:49;100215.91;;;13.70;84.27
50368;BME280;36281;34.132;-118.018;2023-04-10T11:08:37;100222.53;;;13.68;84.36
50368;BME280;36281;34.132;-118.018;2023-04-10T11:11:13;100218.22;;;13.67;84.22
50368;BME280;36281;34.132;-118.018;2023-04-10T11:14:13;100221.09;;;13.65;84.17
50368;BME280;36281;34.132;-118.018;2023-04-10T11:16:46;100218.88;;;13.62;83.73
50368;BME280;36281;34.132;-118.018;2023-04-10T11:19:16;100221.75;;;13.61;83.84
50368;BME280;36281;34.132;-118.018;2023-04-10T11:22:03;100224.28;;;13.56;84.64
50368;BME280;36281;34.132;-118.018;2023-04-10T11:24:54;100230.22;;;13.58;84.47
50368;BME280;36281;34.132;-118.018;2023-04-10T11:27:44;100223.72;;;13.54;84.79
50368;BME280;36281;34.132;-118.018;2023-04-10T11:30:32;100224.59;;;13.48;84.66
50368;BME280;36281;34.132;-118.018;2023-04-10T11:33:03;100232.59;;;13.48;84.51
50368;BME280;36281;34.132;-118.018;2023-04-10T11:35:33;100224.41;;;13.42;84.64
50368;BME280;36281;34.132;-118.018;2023-04-10T11:38:12;100236.47;;;13.45;84.57
50368;BME280;36281;34.132;-118.018;2023-04-10T11:40:58;100240.19;;;13.44;84.18
50368;BME280;36281;34.132;-118.018;2023-04-10T11:43:28;100237.53;;;13.44;84.08
50368;BME280;36281;34.132;-118.018;2023-04-10T11:46:02;100234.72;;;13.39;83.88
50368;BME280;36281;34.132;-118.018;2023-04-10T11:48:31;100243.13;;;13.36;84.18
50368;BME280;36281;34.132;-118.018;2023-04-10T11:51:07;100242.75;;;13.32;84.46
50368;BME280;36281;34.132;-118.018;2023-04-10T11:53:36;100240.31;;;13.31;84.82
50368;BME280;36281;34.132;-118.018;2023-04-10T11:56:17;100240.38;;;13.24;84.94
50368;BME280;36281;34.132;-118.018;2023-04-10T11:58:49;100243.63;;;13.26;84.83
50368;BME280;36281;34.132;-118.018;2023-04-10T12:01:22;100246.75;;;13.23;84.92
50368;BME280;36281;34.132;-118.018;2023-04-10T12:03:51;100250.63;;;13.20;85.33
50368;BME280;36281;34.132;-118.018;2023-04-10T12:06:21;100240.19;;;13.19;85.43
50368;BME280;36281;34.132;-118.018;2023-04-10T12:08:50;100246.56;;;13.18;85.58
50368;BME280;36281;34.132;-118.018;2023-04-10T12:11:23;100242.25;;;13.17;85.40
50368;BME280;36281;34.132;-118.018;2023-04-10T12:13:53;100242.47;;;13.15;85.94
50368;BME280;36281;34.132;-118.018;2023-04-10T12:16:23;100255.78;;;13.15;85.89
50368;BME280;36281;34.132;-118.018;2023-04-10T12:18:52;100246.75;;;13.16;86.17
50368;BME280;36281;34.132;-118.018;2023-04-10T12:21:22;100255.19;;;13.13;86.53
50368;BME280;36281;34.132;-118.018;2023-04-10T12:23:51;100256.19;;;13.12;86.27
50368;BME280;36281;34.132;-118.018;2023-04-10T12:26:22;100260.72;;;13.12;85.97
50368;BME280;36281;34.132;-118.018;2023-04-10T12:28:52;100257.69;;;13.08;86.06
50368;BME280;36281;34.132;-118.018;2023-04-10T12:31:29;100255.88;;;13.02;85.97
50368;BME280;36281;34.132;-118.018;2023-04-10T12:33:59;100257.16;;;13.00;86.00
50368;BME280;36281;34.132;-118.018;2023-04-10T12:36:29;100270.66;;;12.98;86.23
50368;BME280;36281;34.132;-118.018;2023-04-10T12:39:00;100267.84;;;12.93;86.54
50368;BME280;36281;34.132;-118.018;2023-04-10T12:41:32;100264.97;;;12.94;86.24
50368;BME280;36281;34.132;-118.018;2023-04-10T12:44:09;100259.03;;;12.92;86.73